sensor_id;sensor_type;location;lat;lon;timestamp;temperature;humidity
17442;DHT22;8838;50.144;8.176;2022-12-17T00:01:52;-5.50;99.90
17442;DHT22;8838;50.144;8.176;2022-12-17T00:04:36;-5.50;99.90
17442;DHT22;8838;50.144;8.176;2022-12-17T00:07:20;-5.60;99.90
17442;DHT22;8838;50.144;8.176;2022-12-17T00:10:06;-5.60;99.90
17442;DHT22;8838;50.144;8.176;2022-12-17T00:12:52;-5.60;99.90
17442;DHT22;8838;50.144;8.176;2022-12-17T00:15:36;-5.70;99.90
17442;DHT22;8838;50.144;8.176;2022-12-17T00:18:21;-5.70;99.90
17442;DHT22;8838;50.144;8.176;2022-12-17T00:21:05;-5.90;99.90
17442;DHT22;8838;50.144;8.176;2022-12-17T00:23:50;-5.90;99.90
17442;DHT22;8838;50.144;8.176;2022-12-17T00:26:34;-5.90;99.90
17442;DHT22;8838;50.144;8.176;2022-12-17T00:29:20;-5.90;99.90
17442;DHT22;8838;50.144;8.176;2022-12-17T00:32:08;-5.80;99.90
17442;DHT22;8838;50.144;8.176;2022-12-17T00:34:52;-5.80;99.90
17442;DHT22;8838;50.144;8.176;2022-12-17T00:37:36;-5.90;99.90
17442;DHT22;8838;50.144;8.176;2022-12-17T00:40:20;-5.90;99.90
17442;DHT22;8838;50.144;8.176;2022-12-17T00:43:06;-5.90;99.90
17442;DHT22;8838;50.144;8.176;2022-12-17T00:45:52;-5.90;99.90
17442;DHT22;8838;50.144;8.176;2022-12-17T00:48:37;-5.90;99.90
17442;DHT22;8838;50.144;8.176;2022-12-17T00:51:22;-5.90;99.90
17442;DHT22;8838;50.144;8.176;2022-12-17T00:54:06;-5.90;99.90
17442;DHT22;8838;50.144;8.176;2022-12-17T00:56:51;-5.90;99.90
17442;DHT22;8838;50.144;8.176;2022-12-17T00:59:35;-5.90;99.90
17442;DHT22;8838;50.144;8.176;2022-12-17T01:02:21;-6.00;99.90
17442;DHT22;8838;50.144;8.176;2022-12-17T01:05:08;-6.00;99.90
17442;DHT22;8838;50.144;8.176;2022-12-17T01:07:53;-6.20;99.90
17442;DHT22;8838;50.144;8.176;2022-12-17T01:10:37;-6.20;99.90
17442;DHT22;8838;50.144;8.176;2022-12-17T01:13:21;-6.40;99.90
17442;DHT22;8838;50.144;8.176;2022-12-17T01:16:08;-6.50;99.90
17442;DHT22;8838;50.144;8.176;2022-12-17T01:18:54;-6.50;99.90
17442;DHT22;8838;50.144;8.176;2022-12-17T01:21:39;-6.40;99.90
17442;DHT22;8838;50.144;8.176;2022-12-17T01:24:23;-6.30;99.90
17442;DHT22;8838;50.144;8.176;2022-12-17T01:27:08;-6.20;99.90
17442;DHT22;8838;50.144;8.176;2022-12-17T01:29:52;-6.10;99.90
17442;DHT22;8838;50.144;8.176;2022-12-17T01:32:36;-6.00;99.90
17442;DHT22;8838;50.144;8.176;2022-12-17T01:35:22;-6.00;99.90
17442;DHT22;8838;50.144;8.176;2022-12-17T01:38:10;-6.00;99.90
17442;DHT22;8838;50.144;8.176;2022-12-17T01:40:54;-6.00;99.90
17442;DHT22;8838;50.144;8.176;2022-12-17T01:43:38;-6.00;99.90
17442;DHT22;8838;50.144;8.176;2022-12-17T01:46:24;-6.10;99.90
17442;DHT22;8838;50.144;8.176;2022-12-17T01:49:11;-6.20;99.90
17442;DHT22;8838;50.144;8.176;2022-12-17T01:51:57;-6.30;99.90
17442;DHT22;8838;50.144;8.176;2022-12-17T01:54:43;-6.30;99.90
17442;DHT22;8838;50.144;8.176;2022-12-17T01:57:28;-6.20;99.90
17442;DHT22;8838;50.144;8.176;2022-12-17T02:00:14;-6.20;99.90
17442;DHT22;8838;50.144;8.176;2022-12-17T02:02:59;-6.30;99.90
17442;DHT22;8838;50.144;8.176;2022-12-17T02:05:47;-6.40;99.90
17442;DHT22;8838;50.144;8.176;2022-12-17T02:08:47;-6.50;99.90
17442;DHT22;8838;50.144;8.176;2022-12-17T02:11:41;-6.50;99.90
17442;DHT22;8838;50.144;8.176;2022-12-17T02:14:32;-6.40;99.90
17442;DHT22;8838;50.144;8.176;2022-12-17T02:17:21;-6.50;99.90
17442;DHT22;8838;50.144;8.176;2022-12-17T02:20:17;-6.50;99.90
17442;DHT22;8838;50.144;8.176;2022-12-17T02:23:12;-6.50;99.90
17442;DHT22;8838;50.144;8.176;2022-12-17T02:26:04;-6.40;99.90
17442;DHT22;8838;50.144;8.176;2022-12-17T02:28:55;-6.40;99.90
17442;DHT22;8838;50.144;8.176;2022-12-17T02:31:43;-6.40;99.90
17442;DHT22;8838;50.144;8.176;2022-12-17T02:34:29;-6.50;99.90
17442;DHT22;8838;50.144;8.176;2022-12-17T02:37:18;-6.50;99.90
17442;DHT22;8838;50.144;8.176;2022-12-17T02:40:03;-6.50;99.90
17442;DHT22;8838;50.144;8.176;2022-12-17T02:42:48;-6.60;99.90
17442;DHT22;8838;50.144;8.176;2022-12-17T02:45:34;-6.60;99.90
17442;DHT22;8838;50.144;8.176;2022-12-17T02:48:18;-6.70;99.90
17442;DHT22;8838;50.144;8.176;2022-12-17T02:51:03;-6.80;99.90
17442;DHT22;8838;50.144;8.176;2022-12-17T02:53:50;-6.80;99.90
17442;DHT22;8838;50.144;8.176;2022-12-17T02:56:36;-6.90;99.90
17442;DHT22;8838;50.144;8.176;2022-12-17T02:59:20;-6.80;99.90
17442;DHT22;8838;50.144;8.176;2022-12-17T03:02:06;-6.90;99.90
17442;DHT22;8838;50.144;8.176;2022-12-17T03:04:50;-6.90;99.90
17442;DHT22;8838;50.144;8.176;2022-12-17T03:07:31;-6.90;99.90
17442;DHT22;8838;50.144;8.176;2022-12-17T03:10:16;-6.90;99.90
17442;DHT22;8838;50.144;8.176;2022-12-17T03:13:00;-7.00;99.90
17442;DHT22;8838;50.144;8.176;2022-12-17T03:15:44;-7.00;99.90
17442;DHT22;8838;50.144;8.176;2022-12-17T03:18:30;-7.00;99.90
17442;DHT22;8838;50.144;8.176;2022-12-17T03:21:14;-7.00;99.90
17442;DHT22;8838;50.144;8.176;2022-12-17T03:23:58;-7.00;99.90
17442;DHT22;8838;50.144;8.176;2022-12-17T03:26:42;-7.10;99.90
17442;DHT22;8838;50.144;8.176;2022-12-17T03:29:41;-7.10;99.90
17442;DHT22;8838;50.144;8.176;2022-12-17T03:32:25;-7.20;99.90
17442;DHT22;8838;50.144;8.176;2022-12-17T03:35:11;-7.20;99.90
17442;DHT22;8838;50.144;8.176;2022-12-17T03:37:55;-7.30;99.90
17442;DHT22;8838;50.144;8.176;2022-12-17T03:40:39;-7.50;99.90
17442;DHT22;8838;50.144;8.176;2022-12-17T03:43:23;-7.50;99.90
17442;DHT22;8838;50.144;8.176;2022-12-17T03:46:07;-7.60;99.90
17442;DHT22;8838;50.144;8.176;2022-12-17T03:48:51;-7.50;99.90
17442;DHT22;8838;50.144;8.176;2022-12-17T03:51:37;-7.40;99.90
17442;DHT22;8838;50.144;8.176;2022-12-17T03:54:21;-7.40;99.90
17442;DHT22;8838;50.144;8.176;2022-12-17T03:57:06;-7.40;99.90
17442;DHT22;8838;50.144;8.176;2022-12-17T03:59:50;-7.40;99.90
17442;DHT22;8838;50.144;8.176;2022-12-17T04:02:34;-7.40;99.90
17442;DHT22;8838;50.144;8.176;2022-12-17T04:05:18;-7.50;99.90
17442;DHT22;8838;50.144;8.176;2022-12-17T04:08:04;-7.50;99.90
17442;DHT22;8838;50.144;8.176;2022-12-17T04:10:49;-7.50;99.90
17442;DHT22;8838;50.144;8.176;2022-12-17T04:13:33;-7.60;99.90
17442;DHT22;8838;50.144;8.176;2022-12-17T04:16:17;-7.60;99.90
17442;DHT22;8838;50.144;8.176;2022-12-17T04:19:16;-7.60;99.90
17442;DHT22;8838;50.144;8.176;2022-12-17T04:22:00;-7.60;99.90
17442;DHT22;8838;50.144;8.176;2022-12-17T04:24:46;-7.60;99.90
17442;DHT22;8838;50.144;8.176;2022-12-17T04:27:30;-7.70;99.90
17442;DHT22;8838;50.144;8.176;2022-12-17T04:30:15;-8.00;99.90
17442;DHT22;8838;50.144;8.176;2022-12-17T04:32:59;-8.20;99.90
17442;DHT22;8838;50.144;8.176;2022-12-17T04:35:43;-8.20;99.90
17442;DHT22;8838;50.144;8.176;2022-12-17T04:38:28;-8.20;99.90
17442;DHT22;8838;50.144;8.176;2022-12-17T04:41:13;-8.20;99.90
17442;DHT22;8838;50.144;8.176;2022-12-17T04:43:57;-8.30;99.90
17442;DHT22;8838;50.144;8.176;2022-12-17T04:46:41;-8.30;99.90
17442;DHT22;8838;50.144;8.176;2022-12-17T04:49:26;-8.30;99.90
17442;DHT22;8838;50.144;8.176;2022-12-17T04:52:10;-8.30;99.90
17442;DHT22;8838;50.144;8.176;2022-12-17T04:54:54;-8.40;99.90
17442;DHT22;8838;50.144;8.176;2022-12-17T04:57:39;-8.40;99.90
17442;DHT22;8838;50.144;8.176;2022-12-17T05:00:23;-8.40;99.90
17442;DHT22;8838;50.144;8.176;2022-12-17T05:03:10;-8.50;99.90
17442;DHT22;8838;50.144;8.176;2022-12-17T05:05:54;-8.50;99.90
17442;DHT22;8838;50.144;8.176;2022-12-17T05:08:47;-8.50;99.90
17442;DHT22;8838;50.144;8.176;2022-12-17T05:11:31;-8.60;99.90
17442;DHT22;8838;50.144;8.176;2022-12-17T05:14:17;-8.70;99.90
17442;DHT22;8838;50.144;8.176;2022-12-17T05:17:01;-8.80;99.90
17442;DHT22;8838;50.144;8.176;2022-12-17T05:19:45;-8.80;99.90
17442;DHT22;8838;50.144;8.176;2022-12-17T05:22:30;-9.00;99.90
17442;DHT22;8838;50.144;8.176;2022-12-17T05:25:14;-9.10;99.90
17442;DHT22;8838;50.144;8.176;2022-12-17T05:27:59;-9.00;99.90
17442;DHT22;8838;50.144;8.176;2022-12-17T05:30:50;-9.10;99.90
17442;DHT22;8838;50.144;8.176;2022-12-17T05:33:35;-9.20;99.90
17442;DHT22;8838;50.144;8.176;2022-12-17T05:36:19;-9.30;99.90
17442;DHT22;8838;50.144;8.176;2022-12-17T05:39:03;-9.30;99.90
17442;DHT22;8838;50.144;8.176;2022-12-17T05:41:47;-9.50;99.90
17442;DHT22;8838;50.144;8.176;2022-12-17T05:44:31;-9.70;99.90
17442;DHT22;8838;50.144;8.176;2022-12-17T05:47:17;-9.60;99.90
17442;DHT22;8838;50.144;8.176;2022-12-17T05:50:01;-9.60;99.90
17442;DHT22;8838;50.144;8.176;2022-12-17T05:52:46;-9.60;99.90
17442;DHT22;8838;50.144;8.176;2022-12-17T05:55:30;-9.60;99.90
17442;DHT22;8838;50.144;8.176;2022-12-17T05:58:14;-9.60;99.90
17442;DHT22;8838;50.144;8.176;2022-12-17T06:01:00;-9.50;99.90
17442;DHT22;8838;50.144;8.176;2022-12-17T06:03:46;-9.50;99.90
17442;DHT22;8838;50.144;8.176;2022-12-17T06:06:30;-9.40;99.90
17442;DHT22;8838;50.144;8.176;2022-12-17T06:09:11;-9.40;99.90
17442;DHT22;8838;50.144;8.176;2022-12-17T06:11:56;-9.40;99.90
17442;DHT22;8838;50.144;8.176;2022-12-17T06:14:40;-9.40;99.90
17442;DHT22;8838;50.144;8.176;2022-12-17T06:17:24;-9.30;99.90
17442;DHT22;8838;50.144;8.176;2022-12-17T06:20:10;-9.40;99.90
17442;DHT22;8838;50.144;8.176;2022-12-17T06:22:58;-9.40;99.90
17442;DHT22;8838;50.144;8.176;2022-12-17T06:25:43;-9.40;99.90
17442;DHT22;8838;50.144;8.176;2022-12-17T06:28:27;-9.40;99.90
17442;DHT22;8838;50.144;8.176;2022-12-17T06:31:12;-9.60;99.90
17442;DHT22;8838;50.144;8.176;2022-12-17T06:33:56;-9.80;99.90
17442;DHT22;8838;50.144;8.176;2022-12-17T06:36:48;-10.00;99.90
17442;DHT22;8838;50.144;8.176;2022-12-17T06:39:32;-10.20;99.90
17442;DHT22;8838;50.144;8.176;2022-12-17T06:42:25;-10.20;99.90
17442;DHT22;8838;50.144;8.176;2022-12-17T06:45:09;-10.10;99.90
17442;DHT22;8838;50.144;8.176;2022-12-17T06:48:02;-10.00;99.90
17442;DHT22;8838;50.144;8.176;2022-12-17T06:50:46;-10.00;99.90
17442;DHT22;8838;50.144;8.176;2022-12-17T06:53:32;-10.00;99.90
17442;DHT22;8838;50.144;8.176;2022-12-17T06:56:18;-10.10;99.90
17442;DHT22;8838;50.144;8.176;2022-12-17T06:59:03;-10.00;99.90
17442;DHT22;8838;50.144;8.176;2022-12-17T07:01:47;-10.00;99.90
17442;DHT22;8838;50.144;8.176;2022-12-17T07:04:32;-10.00;99.90
17442;DHT22;8838;50.144;8.176;2022-12-17T07:07:16;-10.00;99.90
17442;DHT22;8838;50.144;8.176;2022-12-17T07:10:03;-9.90;99.90
17442;DHT22;8838;50.144;8.176;2022-12-17T07:13:03;-9.90;99.90
17442;DHT22;8838;50.144;8.176;2022-12-17T07:15:47;-9.90;99.90
17442;DHT22;8838;50.144;8.176;2022-12-17T07:18:31;-10.00;99.90
17442;DHT22;8838;50.144;8.176;2022-12-17T07:21:16;-10.00;99.90
17442;DHT22;8838;50.144;8.176;2022-12-17T07:23:59;-9.90;99.90
17442;DHT22;8838;50.144;8.176;2022-12-17T07:26:45;-10.00;99.90
17442;DHT22;8838;50.144;8.176;2022-12-17T07:29:29;-10.00;99.90
17442;DHT22;8838;50.144;8.176;2022-12-17T07:32:13;-10.10;99.90
17442;DHT22;8838;50.144;8.176;2022-12-17T07:34:58;-10.10;99.90
17442;DHT22;8838;50.144;8.176;2022-12-17T07:37:42;-10.20;99.90
17442;DHT22;8838;50.144;8.176;2022-12-17T07:40:27;-10.10;99.90
17442;DHT22;8838;50.144;8.176;2022-12-17T07:43:13;-10.10;99.90
17442;DHT22;8838;50.144;8.176;2022-12-17T07:45:57;-10.10;99.90
17442;DHT22;8838;50.144;8.176;2022-12-17T07:48:41;-10.20;99.90
17442;DHT22;8838;50.144;8.176;2022-12-17T07:51:26;-10.30;99.90
17442;DHT22;8838;50.144;8.176;2022-12-17T07:54:10;-10.20;99.90
17442;DHT22;8838;50.144;8.176;2022-12-17T07:56:55;-10.10;99.90
17442;DHT22;8838;50.144;8.176;2022-12-17T07:59:40;-9.90;99.90
17442;DHT22;8838;50.144;8.176;2022-12-17T08:02:24;-9.60;99.90
17442;DHT22;8838;50.144;8.176;2022-12-17T08:05:08;-9.40;99.90
17442;DHT22;8838;50.144;8.176;2022-12-17T08:07:53;-9.30;99.90
17442;DHT22;8838;50.144;8.176;2022-12-17T08:10:37;-9.30;99.90
17442;DHT22;8838;50.144;8.176;2022-12-17T08:13:21;-9.30;99.90
17442;DHT22;8838;50.144;8.176;2022-12-17T08:16:08;-9.40;99.90
17442;DHT22;8838;50.144;8.176;2022-12-17T08:18:52;-9.50;99.90
17442;DHT22;8838;50.144;8.176;2022-12-17T08:21:37;-9.70;99.90
17442;DHT22;8838;50.144;8.176;2022-12-17T08:24:21;-9.50;99.90
17442;DHT22;8838;50.144;8.176;2022-12-17T08:27:05;-9.50;99.90
17442;DHT22;8838;50.144;8.176;2022-12-17T08:29:49;-9.40;99.90
17442;DHT22;8838;50.144;8.176;2022-12-17T08:32:35;-9.30;99.90
17442;DHT22;8838;50.144;8.176;2022-12-17T08:35:19;-9.20;99.90
17442;DHT22;8838;50.144;8.176;2022-12-17T08:38:03;-9.20;99.90
17442;DHT22;8838;50.144;8.176;2022-12-17T08:40:48;-9.40;99.90
17442;DHT22;8838;50.144;8.176;2022-12-17T08:43:32;-9.40;99.90
17442;DHT22;8838;50.144;8.176;2022-12-17T08:46:18;-9.30;99.90
17442;DHT22;8838;50.144;8.176;2022-12-17T08:49:04;-9.10;99.90
17442;DHT22;8838;50.144;8.176;2022-12-17T08:51:45;-9.00;99.90
17442;DHT22;8838;50.144;8.176;2022-12-17T08:54:29;-9.00;99.90
17442;DHT22;8838;50.144;8.176;2022-12-17T08:57:14;-8.90;99.90
17442;DHT22;8838;50.144;8.176;2022-12-17T09:00:13;-9.00;99.90
17442;DHT22;8838;50.144;8.176;2022-12-17T09:02:58;-9.00;99.90
17442;DHT22;8838;50.144;8.176;2022-12-17T09:05:43;-8.80;99.90
17442;DHT22;8838;50.144;8.176;2022-12-17T09:08:28;-8.40;99.90
17442;DHT22;8838;50.144;8.176;2022-12-17T09:11:13;-7.70;99.90
17442;DHT22;8838;50.144;8.176;2022-12-17T09:13:57;-6.90;99.90
17442;DHT22;8838;50.144;8.176;2022-12-17T09:16:42;-6.30;99.90
17442;DHT22;8838;50.144;8.176;2022-12-17T09:19:26;-5.80;99.90
17442;DHT22;8838;50.144;8.176;2022-12-17T09:22:12;-5.50;99.90
17442;DHT22;8838;50.144;8.176;2022-12-17T09:24:56;-5.30;99.90
17442;DHT22;8838;50.144;8.176;2022-12-17T09:27:40;-4.90;99.90
17442;DHT22;8838;50.144;8.176;2022-12-17T09:30:25;-4.80;99.90
17442;DHT22;8838;50.144;8.176;2022-12-17T09:33:13;-4.50;99.90
17442;DHT22;8838;50.144;8.176;2022-12-17T09:35:58;-4.40;99.90
17442;DHT22;8838;50.144;8.176;2022-12-17T09:38:47;-4.20;99.90
17442;DHT22;8838;50.144;8.176;2022-12-17T09:41:40;-4.20;99.90
17442;DHT22;8838;50.144;8.176;2022-12-17T09:44:32;-4.30;99.90
17442;DHT22;8838;50.144;8.176;2022-12-17T09:47:27;-4.70;99.90
17442;DHT22;8838;50.144;8.176;2022-12-17T09:50:15;-5.10;99.90
17442;DHT22;8838;50.144;8.176;2022-12-17T09:53:02;-5.30;99.90
17442;DHT22;8838;50.144;8.176;2022-12-17T09:55:49;-5.50;99.90
17442;DHT22;8838;50.144;8.176;2022-12-17T09:58:35;-5.70;99.90
17442;DHT22;8838;50.144;8.176;2022-12-17T10:01:22;-5.90;99.90
17442;DHT22;8838;50.144;8.176;2022-12-17T10:04:13;-5.90;99.90
17442;DHT22;8838;50.144;8.176;2022-12-17T10:06:59;-6.20;99.90
17442;DHT22;8838;50.144;8.176;2022-12-17T10:09:46;-6.40;99.90
17442;DHT22;8838;50.144;8.176;2022-12-17T10:12:34;-6.50;99.90
17442;DHT22;8838;50.144;8.176;2022-12-17T10:15:18;-6.50;99.90
17442;DHT22;8838;50.144;8.176;2022-12-17T10:18:05;-6.40;99.90
17442;DHT22;8838;50.144;8.176;2022-12-17T10:20:55;-6.30;99.90
17442;DHT22;8838;50.144;8.176;2022-12-17T10:23:40;-6.30;99.90
17442;DHT22;8838;50.144;8.176;2022-12-17T10:26:26;-6.40;99.90
17442;DHT22;8838;50.144;8.176;2022-12-17T10:29:14;-6.30;99.90
17442;DHT22;8838;50.144;8.176;2022-12-17T10:32:07;-6.30;99.90
17442;DHT22;8838;50.144;8.176;2022-12-17T10:34:51;-6.20;99.90
17442;DHT22;8838;50.144;8.176;2022-12-17T10:37:36;-6.20;99.90
17442;DHT22;8838;50.144;8.176;2022-12-17T10:40:24;-6.30;99.90
17442;DHT22;8838;50.144;8.176;2022-12-17T10:43:27;-6.30;99.90
17442;DHT22;8838;50.144;8.176;2022-12-17T10:46:21;-6.10;99.90
17442;DHT22;8838;50.144;8.176;2022-12-17T10:49:11;-5.60;99.90
17442;DHT22;8838;50.144;8.176;2022-12-17T10:52:00;-4.80;99.90
17442;DHT22;8838;50.144;8.176;2022-12-17T10:54:58;-4.10;99.90
17442;DHT22;8838;50.144;8.176;2022-12-17T10:57:45;-4.00;99.90
17442;DHT22;8838;50.144;8.176;2022-12-17T11:00:32;-4.00;99.90
17442;DHT22;8838;50.144;8.176;2022-12-17T11:03:31;-4.20;99.90
17442;DHT22;8838;50.144;8.176;2022-12-17T11:06:21;-4.40;99.90
17442;DHT22;8838;50.144;8.176;2022-12-17T11:09:15;-4.60;99.90
17442;DHT22;8838;50.144;8.176;2022-12-17T11:12:03;-4.70;99.90
17442;DHT22;8838;50.144;8.176;2022-12-17T11:14:51;-4.80;99.90
17442;DHT22;8838;50.144;8.176;2022-12-17T11:17:39;-4.80;99.90
17442;DHT22;8838;50.144;8.176;2022-12-17T11:20:33;-4.80;99.90
17442;DHT22;8838;50.144;8.176;2022-12-17T11:23:22;-4.80;99.90
17442;DHT22;8838;50.144;8.176;2022-12-17T11:26:09;-4.70;99.90
17442;DHT22;8838;50.144;8.176;2022-12-17T11:28:55;-4.60;99.90
17442;DHT22;8838;50.144;8.176;2022-12-17T11:32:09;-4.60;99.90
17442;DHT22;8838;50.144;8.176;2022-12-17T11:35:03;-4.60;99.90
17442;DHT22;8838;50.144;8.176;2022-12-17T11:38:02;-4.60;99.90
17442;DHT22;8838;50.144;8.176;2022-12-17T11:40:54;-4.60;99.90
17442;DHT22;8838;50.144;8.176;2022-12-17T11:43:46;-4.60;99.90
17442;DHT22;8838;50.144;8.176;2022-12-17T11:46:38;-4.50;99.90
17442;DHT22;8838;50.144;8.176;2022-12-17T11:49:34;-4.50;99.90
17442;DHT22;8838;50.144;8.176;2022-12-17T11:52:25;-4.50;99.90
17442;DHT22;8838;50.144;8.176;2022-12-17T11:55:16;-4.50;99.90
17442;DHT22;8838;50.144;8.176;2022-12-17T11:58:04;-4.40;99.90
17442;DHT22;8838;50.144;8.176;2022-12-17T12:00:57;-4.40;99.90
17442;DHT22;8838;50.144;8.176;2022-12-17T12:03:51;-4.30;99.90
17442;DHT22;8838;50.144;8.176;2022-12-17T12:06:47;-4.30;99.90
17442;DHT22;8838;50.144;8.176;2022-12-17T12:09:38;-4.10;99.90
17442;DHT22;8838;50.144;8.176;2022-12-17T12:12:37;-4.00;99.90
17442;DHT22;8838;50.144;8.176;2022-12-17T12:15:30;-3.90;99.90
17442;DHT22;8838;50.144;8.176;2022-12-17T12:18:43;-3.80;99.90
17442;DHT22;8838;50.144;8.176;2022-12-17T12:21:40;-3.80;99.90
17442;DHT22;8838;50.144;8.176;2022-12-17T12:24:52;-3.70;99.90
17442;DHT22;8838;50.144;8.176;2022-12-17T12:27:49;-3.70;99.90
17442;DHT22;8838;50.144;8.176;2022-12-17T12:30:42;-3.70;99.90
17442;DHT22;8838;50.144;8.176;2022-12-17T12:33:33;-3.70;99.90
17442;DHT22;8838;50.144;8.176;2022-12-17T12:36:22;-3.60;99.90
17442;DHT22;8838;50.144;8.176;2022-12-17T12:39:12;-3.50;99.90
17442;DHT22;8838;50.144;8.176;2022-12-17T12:42:03;-3.50;99.90
17442;DHT22;8838;50.144;8.176;2022-12-17T12:44:55;-3.50;99.90
17442;DHT22;8838;50.144;8.176;2022-12-17T12:47:46;-3.40;99.90
17442;DHT22;8838;50.144;8.176;2022-12-17T12:50:44;-3.40;99.90
17442;DHT22;8838;50.144;8.176;2022-12-17T12:53:31;-3.30;99.90
17442;DHT22;8838;50.144;8.176;2022-12-17T12:56:33;-3.30;99.90
17442;DHT22;8838;50.144;8.176;2022-12-17T12:59:24;-3.20;99.90
17442;DHT22;8838;50.144;8.176;2022-12-17T13:02:26;-3.20;99.90
17442;DHT22;8838;50.144;8.176;2022-12-17T13:05:31;-3.20;99.90
17442;DHT22;8838;50.144;8.176;2022-12-17T13:08:18;-3.20;99.90
17442;DHT22;8838;50.144;8.176;2022-12-17T13:10:46;-3.10;99.90
17442;DHT22;8838;50.144;8.176;2022-12-17T13:13:24;-3.20;99.90
17442;DHT22;8838;50.144;8.176;2022-12-17T13:15:55;-3.20;99.90
17442;DHT22;8838;50.144;8.176;2022-12-17T13:18:30;-3.20;99.90
17442;DHT22;8838;50.144;8.176;2022-12-17T13:20:59;-3.30;99.90
17442;DHT22;8838;50.144;8.176;2022-12-17T13:23:32;-3.30;99.90
17442;DHT22;8838;50.144;8.176;2022-12-17T13:26:21;-3.30;99.90
17442;DHT22;8838;50.144;8.176;2022-12-17T13:28:58;-3.30;99.90
17442;DHT22;8838;50.144;8.176;2022-12-17T13:31:26;-3.40;99.90
17442;DHT22;8838;50.144;8.176;2022-12-17T13:34:02;-3.40;99.90
17442;DHT22;8838;50.144;8.176;2022-12-17T13:36:33;-3.40;99.90
17442;DHT22;8838;50.144;8.176;2022-12-17T13:39:13;-3.40;99.90
17442;DHT22;8838;50.144;8.176;2022-12-17T13:41:43;-3.40;99.90
17442;DHT22;8838;50.144;8.176;2022-12-17T13:44:17;-3.50;99.90
17442;DHT22;8838;50.144;8.176;2022-12-17T13:46:47;-3.40;99.90
17442;DHT22;8838;50.144;8.176;2022-12-17T13:49:19;-3.50;99.90
17442;DHT22;8838;50.144;8.176;2022-12-17T13:51:46;-3.40;99.90
17442;DHT22;8838;50.144;8.176;2022-12-17T13:54:17;-3.50;99.90
17442;DHT22;8838;50.144;8.176;2022-12-17T13:56:44;-3.50;99.90
17442;DHT22;8838;50.144;8.176;2022-12-17T13:59:17;-3.50;99.90
17442;DHT22;8838;50.144;8.176;2022-12-17T14:01:46;-3.50;99.90
17442;DHT22;8838;50.144;8.176;2022-12-17T14:04:23;-3.60;99.90
17442;DHT22;8838;50.144;8.176;2022-12-17T14:06:52;-3.50;99.90
17442;DHT22;8838;50.144;8.176;2022-12-17T14:09:23;-3.50;99.90
17442;DHT22;8838;50.144;8.176;2022-12-17T14:11:53;-3.40;99.90
17442;DHT22;8838;50.144;8.176;2022-12-17T14:14:39;-3.40;99.90
17442;DHT22;8838;50.144;8.176;2022-12-17T14:17:15;-3.40;99.90
17442;DHT22;8838;50.144;8.176;2022-12-17T14:19:44;-3.40;99.90
17442;DHT22;8838;50.144;8.176;2022-12-17T14:22:24;-3.40;99.90
17442;DHT22;8838;50.144;8.176;2022-12-17T14:25:02;-3.40;99.90
17442;DHT22;8838;50.144;8.176;2022-12-17T14:27:50;-3.50;99.90
17442;DHT22;8838;50.144;8.176;2022-12-17T14:30:23;-3.50;99.90
17442;DHT22;8838;50.144;8.176;2022-12-17T14:32:50;-3.60;99.90
17442;DHT22;8838;50.144;8.176;2022-12-17T14:35:27;-3.60;99.90
17442;DHT22;8838;50.144;8.176;2022-12-17T14:37:55;-3.70;99.90
17442;DHT22;8838;50.144;8.176;2022-12-17T14:40:23;-3.80;99.90
17442;DHT22;8838;50.144;8.176;2022-12-17T14:42:51;-3.80;99.90
17442;DHT22;8838;50.144;8.176;2022-12-17T14:45:24;-3.80;99.90
17442;DHT22;8838;50.144;8.176;2022-12-17T14:47:53;-3.80;99.90
17442;DHT22;8838;50.144;8.176;2022-12-17T14:50:27;-3.80;99.90
17442;DHT22;8838;50.144;8.176;2022-12-17T14:52:55;-3.70;99.90
17442;DHT22;8838;50.144;8.176;2022-12-17T14:55:29;-3.80;99.90
17442;DHT22;8838;50.144;8.176;2022-12-17T14:58:21;-3.80;99.90
17442;DHT22;8838;50.144;8.176;2022-12-17T15:00:51;-3.90;99.90
17442;DHT22;8838;50.144;8.176;2022-12-17T15:03:22;-3.90;99.90
17442;DHT22;8838;50.144;8.176;2022-12-17T15:05:54;-3.90;99.90
17442;DHT22;8838;50.144;8.176;2022-12-17T15:08:22;-3.90;99.90
17442;DHT22;8838;50.144;8.176;2022-12-17T15:10:50;-3.90;99.90
17442;DHT22;8838;50.144;8.176;2022-12-17T15:13:17;-4.00;99.90
17442;DHT22;8838;50.144;8.176;2022-12-17T15:15:44;-4.00;99.90
17442;DHT22;8838;50.144;8.176;2022-12-17T15:18:11;-4.00;99.90
17442;DHT22;8838;50.144;8.176;2022-12-17T15:20:38;-4.10;99.90
17442;DHT22;8838;50.144;8.176;2022-12-17T15:23:14;-4.10;99.90
17442;DHT22;8838;50.144;8.176;2022-12-17T15:25:41;-4.10;99.90
17442;DHT22;8838;50.144;8.176;2022-12-17T15:28:09;-4.10;99.90
17442;DHT22;8838;50.144;8.176;2022-12-17T15:30:36;-4.30;99.90
17442;DHT22;8838;50.144;8.176;2022-12-17T15:33:04;-4.40;99.90
17442;DHT22;8838;50.144;8.176;2022-12-17T15:35:32;-4.50;99.90
17442;DHT22;8838;50.144;8.176;2022-12-17T15:37:59;-4.50;99.90
17442;DHT22;8838;50.144;8.176;2022-12-17T15:40:27;-4.60;99.90
17442;DHT22;8838;50.144;8.176;2022-12-17T15:42:54;-4.60;99.90
17442;DHT22;8838;50.144;8.176;2022-12-17T15:45:35;-4.60;99.90
17442;DHT22;8838;50.144;8.176;2022-12-17T15:48:02;-4.70;99.90
17442;DHT22;8838;50.144;8.176;2022-12-17T15:50:29;-4.80;99.90
17442;DHT22;8838;50.144;8.176;2022-12-17T15:52:56;-4.80;99.90
17442;DHT22;8838;50.144;8.176;2022-12-17T15:55:23;-4.90;99.90
17442;DHT22;8838;50.144;8.176;2022-12-17T15:57:51;-4.90;99.90
17442;DHT22;8838;50.144;8.176;2022-12-17T16:00:18;-5.00;99.90
17442;DHT22;8838;50.144;8.176;2022-12-17T16:02:46;-5.00;99.90
17442;DHT22;8838;50.144;8.176;2022-12-17T16:05:13;-5.10;99.90
17442;DHT22;8838;50.144;8.176;2022-12-17T16:07:40;-5.20;99.90
17442;DHT22;8838;50.144;8.176;2022-12-17T16:10:09;-5.40;99.90
17442;DHT22;8838;50.144;8.176;2022-12-17T16:12:36;-5.50;99.90
17442;DHT22;8838;50.144;8.176;2022-12-17T16:15:06;-5.70;99.90
17442;DHT22;8838;50.144;8.176;2022-12-17T16:17:34;-5.70;99.90
17442;DHT22;8838;50.144;8.176;2022-12-17T16:20:01;-5.90;99.90
17442;DHT22;8838;50.144;8.176;2022-12-17T16:22:27;-6.00;99.90
17442;DHT22;8838;50.144;8.176;2022-12-17T16:24:54;-6.10;99.90
17442;DHT22;8838;50.144;8.176;2022-12-17T16:27:21;-6.10;99.90
17442;DHT22;8838;50.144;8.176;2022-12-17T16:29:48;-6.00;99.90
17442;DHT22;8838;50.144;8.176;2022-12-17T16:32:17;-6.00;99.90
17442;DHT22;8838;50.144;8.176;2022-12-17T16:34:44;-6.10;99.90
17442;DHT22;8838;50.144;8.176;2022-12-17T16:37:11;-6.20;99.90
17442;DHT22;8838;50.144;8.176;2022-12-17T16:39:38;-6.20;99.90
17442;DHT22;8838;50.144;8.176;2022-12-17T16:42:05;-6.30;99.90
17442;DHT22;8838;50.144;8.176;2022-12-17T16:44:32;-6.30;99.90
17442;DHT22;8838;50.144;8.176;2022-12-17T16:46:59;-6.20;99.90
17442;DHT22;8838;50.144;8.176;2022-12-17T16:49:27;-6.20;99.90
17442;DHT22;8838;50.144;8.176;2022-12-17T16:51:55;-6.20;99.90
17442;DHT22;8838;50.144;8.176;2022-12-17T16:54:23;-6.20;99.90
17442;DHT22;8838;50.144;8.176;2022-12-17T16:56:52;-6.20;99.90
17442;DHT22;8838;50.144;8.176;2022-12-17T16:59:19;-6.20;99.90
17442;DHT22;8838;50.144;8.176;2022-12-17T17:01:48;-6.20;99.90
17442;DHT22;8838;50.144;8.176;2022-12-17T17:04:17;-6.30;99.90
17442;DHT22;8838;50.144;8.176;2022-12-17T17:06:47;-6.50;99.90
17442;DHT22;8838;50.144;8.176;2022-12-17T17:09:15;-6.50;99.90
17442;DHT22;8838;50.144;8.176;2022-12-17T17:11:42;-6.60;99.90
17442;DHT22;8838;50.144;8.176;2022-12-17T17:14:09;-6.50;99.90
17442;DHT22;8838;50.144;8.176;2022-12-17T17:16:36;-6.70;99.90
17442;DHT22;8838;50.144;8.176;2022-12-17T17:19:04;-6.70;99.90
17442;DHT22;8838;50.144;8.176;2022-12-17T17:21:31;-6.70;99.90
17442;DHT22;8838;50.144;8.176;2022-12-17T17:24:01;-6.70;99.90